Time;durP1;ratioP1;P1;durP2;ratioP2;P2;SDS_P1;SDS_P2;PMS_P1;PMS_P2;Temp;Humidity;BMP_temperature;BMP_pressure;BME280_temperature;BME280_humidity;BME280_pressure;Samples;Min_cycle;Max_cycle;Signal;HPM_P1;HPM_P2
2024/01/15 00:02:16;;;;;;;14.00;6.00;;;;;;;-128.00;-1.00;-1.00;100179;1282;1003017;-33
2024/01/15 00:04:41;;;;;;;13.40;6.50;;;;;;;-128.00;-1.00;-1.00;100219;1284;1003114;-32
2024/01/15 00:07:07;;;;;;;14.30;6.00;;;;;;;-128.00;-1.00;-1.00;100304;1282;1002753;-31
2024/01/15 00:09:33;;;;;;;10.10;5.30;;;;;;;-128.00;-1.00;-1.00;100257;1282;1055971;-30
2024/01/15 00:11:59;;;;;;;9.10;4.90;;;;;;;-128.00;-1.00;-1.00;100209;1282;1003144;-29
2024/01/15 00:14:25;;;;;;;11.70;5.10;;;;;;;-128.00;-1.00;-1.00;100236;1286;1003341;-30
2024/01/15 00:16:51;;;;;;;12.50;5.80;;;;;;;-128.00;-1.00;-1.00;100175;1282;1003274;-32
2024/01/15 00:19:17;;;;;;;;;;;;;;;-128.00;-1.00;-1.00;100279;1282;1059291;-30
2024/01/15 00:21:43;;;;;;;12.30;6.20;;;;;;;-128.00;-1.00;-1.00;100249;1282;1002534;-31
2024/01/15 00:24:08;;;;;;;10.80;5.60;;;;;;;-128.00;-1.00;-1.00;100172;1282;1003250;-32
2024/01/15 00:26:34;;;;;;;12.90;6.20;;;;;;;-128.00;-1.00;-1.00;100235;1282;1002970;-34
2024/01/15 00:29:00;;;;;;;12.40;7.10;;;;;;;-128.00;-1.00;-1.00;100295;1282;1046766;-33
2024/01/15 00:31:26;;;;;;;13.20;6.40;;;;;;;-128.00;-1.00;-1.00;100280;1282;1003095;-33
2024/01/15 00:33:52;;;;;;;;;;;;;;;-128.00;-1.00;-1.00;100136;1282;1058787;-31
2024/01/15 00:36:18;;;;;;;14.00;6.20;;;;;;;-128.00;-1.00;-1.00;100202;1282;1003651;-33
2024/01/15 00:38:44;;;;;;;14.00;5.70;;;;;;;-128.00;-1.00;-1.00;100225;1285;1003473;-32
2024/01/15 00:41:09;;;;;;;10.90;5.40;;;;;;;-128.00;-1.00;-1.00;100264;1285;1002866;-32
2024/01/15 00:43:35;;;;;;;14.00;5.90;;;;;;;-128.00;-1.00;-1.00;100228;1282;1004209;-32
2024/01/15 00:46:04;;;;;;;11.70;5.10;;;;;;;-128.00;-1.00;-1.00;100169;1282;1058853;-33
2024/01/15 00:48:30;;;;;;;12.40;5.30;;;;;;;-128.00;-1.00;-1.00;100102;1289;1012607;-33
2024/01/15 00:50:56;;;;;;;12.20;5.60;;;;;;;-128.00;-1.00;-1.00;100230;1282;1003459;-31
2024/01/15 00:53:24;;;;;;;10.20;5.10;;;;;;;-128.00;-1.00;-1.00;100276;1282;1003066;-33
2024/01/15 00:55:50;;;;;;;10.00;4.70;;;;;;;-128.00;-1.00;-1.00;100349;1282;1056251;-32
2024/01/15 00:58:16;;;;;;;11.20;5.40;;;;;;;-128.00;-1.00;-1.00;100191;1282;1002627;-31
2024/01/15 01:00:42;;;;;;;8.00;4.50;;;;;;;-128.00;-1.00;-1.00;100249;1286;1002577;-31
2024/01/15 01:03:08;;;;;;;10.40;4.90;;;;;;;-128.00;-1.00;-1.00;100201;1282;1045548;-33
2024/01/15 01:05:34;;;;;;;8.20;4.00;;;;;;;-128.00;-1.00;-1.00;100243;1282;1003589;-32
2024/01/15 01:08:00;;;;;;;12.90;5.10;;;;;;;-128.00;-1.00;-1.00;100305;1282;1003142;-32
2024/01/15 01:10:26;;;;;;;;;;;;;;;-128.00;-1.00;-1.00;100231;1285;1003189;-32
2024/01/15 01:12:52;;;;;;;9.20;5.50;;;;;;;-128.00;-1.00;-1.00;100301;1282;1003388;-32
2024/01/15 01:15:17;;;;;;;10.30;4.90;;;;;;;-128.00;-1.00;-1.00;100237;1282;1045292;-30
2024/01/15 01:17:43;;;;;;;10.10;4.90;;;;;;;-128.00;-1.00;-1.00;100288;1282;1002978;-31
2024/01/15 01:20:10;;;;;;;8.90;4.40;;;;;;;-128.00;-1.00;-1.00;100328;1282;1004006;-32
2024/01/15 01:22:36;;;;;;;8.60;5.20;;;;;;;-128.00;-1.00;-1.00;100275;1282;1012990;-34
2024/01/15 01:25:02;;;;;;;10.10;5.40;;;;;;;-128.00;-1.00;-1.00;100255;1282;1003090;-33
2024/01/15 01:27:28;;;;;;;9.50;4.40;;;;;;;-128.00;-1.00;-1.00;100236;1282;1003858;-31
2024/01/15 01:29:54;;;;;;;10.50;5.20;;;;;;;-128.00;-1.00;-1.00;100263;1282;1004593;-33
2024/01/15 01:32:19;;;;;;;10.20;5.00;;;;;;;-128.00;-1.00;-1.00;99995;1282;1059220;-33
2024/01/15 01:34:45;;;;;;;10.00;4.90;;;;;;;-128.00;-1.00;-1.00;100299;1282;1002905;-31
2024/01/15 01:37:14;;;;;;;8.00;4.40;;;;;;;-128.00;-1.00;-1.00;100227;1282;1003909;-31
2024/01/15 01:39:43;;;;;;;8.30;4.50;;;;;;;-128.00;-1.00;-1.00;100225;1282;1060553;-33
2024/01/15 01:42:09;;;;;;;9.40;4.60;;;;;;;-128.00;-1.00;-1.00;100230;1282;1056345;-33
2024/01/15 01:44:34;;;;;;;9.40;4.70;;;;;;;-128.00;-1.00;-1.00;100211;1282;1003272;-32
2024/01/15 01:47:00;;;;;;;8.60;4.60;;;;;;;-128.00;-1.00;-1.00;100374;1282;1003420;-31
2024/01/15 01:49:26;;;;;;;9.30;3.70;;;;;;;-128.00;-1.00;-1.00;100250;1282;1045807;-30
2024/01/15 01:51:52;;;;;;;9.70;4.60;;;;;;;-128.00;-1.00;-1.00;100252;1282;1004605;-32
2024/01/15 02:34:23;;;;;;;9.20;4.90;;;;;;;-0.22;99.65;97257.95;103378;1288;613902;-32
2024/01/15 02:36:49;;;;;;;7.30;3.80;;;;;;;-0.03;98.51;97256.75;103543;1283;109662;-34
2024/01/15 02:39:15;;;;;;;7.10;3.90;;;;;;;0.01;97.81;97256.16;103715;1282;60475;-31
2024/01/15 02:41:40;;;;;;;6.90;3.90;;;;;;;-0.04;97.52;97257.42;103722;1281;60360;-32
2024/01/15 02:44:06;;;;;;;8.10;4.20;;;;;;;-0.10;97.80;97247.80;103697;1282;60568;-31
2024/01/15 02:46:32;;;;;;;7.10;3.90;;;;;;;0.08;97.13;97245.16;103664;1283;60456;-33
2024/01/15 02:48:57;;;;;;;9.60;4.30;;;;;;;0.01;96.94;97241.75;103672;1281;60466;-33
2024/01/15 02:51:23;;;;;;;6.60;3.60;;;;;;;0.07;96.64;97233.46;103647;1282;60392;-32
2024/01/15 02:53:49;;;;;;;7.20;3.90;;;;;;;0.13;96.68;97231.99;103505;1282;60495;-32
2024/01/15 02:56:15;;;;;;;7.10;3.80;;;;;;;0.28;95.57;97230.92;103783;1282;60399;-31
2024/01/15 02:58:40;;;;;;;8.10;4.10;;;;;;;0.21;95.32;97231.44;103560;1283;60895;-32
2024/01/15 03:01:06;;;;;;;8.10;4.50;;;;;;;0.22;95.30;97224.11;103624;1285;60795;-33
2024/01/15 03:03:33;;;;;;;6.60;4.20;;;;;;;0.16;95.93;97220.41;103790;1283;60710;-31
2024/01/15 03:05:58;;;;;;;6.10;3.40;;;;;;;0.34;95.04;97219.26;103793;1282;60795;-32
2024/01/15 03:08:24;;;;;;;7.30;4.30;;;;;;;0.28;94.97;97221.95;103757;1281;60824;-32
2024/01/15 03:10:49;;;;;;;7.50;5.00;;;;;;;0.30;94.52;97226.68;103727;1285;60783;-30
2024/01/15 03:13:16;;;;;;;5.40;3.00;;;;;;;0.31;94.04;97228.44;103645;1285;60825;-33
2024/01/15 03:15:42;;;;;;;8.40;4.40;;;;;;;0.28;94.17;97226.52;103583;1285;60910;-33
2024/01/15 03:18:08;;;;;;;7.40;4.00;;;;;;;0.34;93.90;97219.09;103717;1281;60825;-31
2024/01/15 03:20:34;;;;;;;6.90;3.80;;;;;;;0.37;93.75;97218.56;103764;1282;60753;-31
2024/01/15 03:22:59;;;;;;;8.60;3.90;;;;;;;0.37;94.05;97218.07;103778;1282;60758;-33
2024/01/15 03:25:25;;;;;;;7.90;4.60;;;;;;;0.32;95.78;97214.11;103693;1283;60911;-30
2024/01/15 03:27:51;;;;;;;6.50;3.70;;;;;;;0.11;98.42;97221.20;103696;1283;61285;-30
2024/01/15 03:30:16;;;;;;;8.70;3.80;;;;;;;-0.07;100.00;97220.70;103780;1283;60789;-39
2024/01/15 03:32:42;;;;;;;7.80;4.30;;;;;;;-0.32;100.00;97221.42;103815;1282;60961;-31
2024/01/15 03:35:08;;;;;;;6.90;3.90;;;;;;;-0.41;100.00;97209.43;103653;1282;61394;-33
2024/01/15 03:37:33;;;;;;;8.80;4.40;;;;;;;-0.32;100.00;97202.77;103666;1286;60763;-32
2024/01/15 03:39:59;;;;;;;7.00;3.90;;;;;;;-0.32;100.00;97201.88;103627;1285;60950;-31
2024/01/15 03:42:24;;;;;;;6.90;3.80;;;;;;;-0.47;100.00;97198.28;103678;1283;60872;-31
2024/01/15 03:44:50;;;;;;;10.30;4.70;;;;;;;-0.42;100.00;97193.38;103627;1282;60812;-31
2024/01/15 03:47:16;;;;;;;10.00;4.20;;;;;;;-0.26;100.00;97193.44;103628;1283;60801;-31
2024/01/15 03:49:41;;;;;;;10.30;4.40;;;;;;;-0.24;100.00;97194.50;103700;1283;60790;-34
2024/01/15 03:52:07;;;;;;;6.90;3.60;;;;;;;-0.25;100.00;97190.33;103622;1283;60958;-34
2024/01/15 03:54:32;;;;;;;9.40;4.50;;;;;;;-0.15;100.00;97196.15;103653;1283;60808;-30
2024/01/15 03:56:58;;;;;;;8.40;4.70;;;;;;;-0.23;100.00;97192.52;103729;1283;60879;-32
2024/01/15 03:59:24;;;;;;;10.40;4.80;;;;;;;-0.18;100.00;97192.05;103674;1283;60891;-30
2024/01/15 04:01:50;;;;;;;10.90;5.60;;;;;;;-0.22;100.00;97189.16;103648;1283;60888;-32
2024/01/15 04:04:17;;;;;;;8.60;5.00;;;;;;;-0.18;100.00;97178.50;103639;1283;74482;-33
2024/01/15 04:06:42;;;;;;;8.70;5.30;;;;;;;-0.03;100.00;97182.25;103613;1282;60790;-31
2024/01/15 04:09:08;;;;;;;8.00;4.60;;;;;;;0.07;99.31;97179.50;103682;1283;61574;-31
2024/01/15 04:11:33;;;;;;;8.40;4.40;;;;;;;-0.05;99.09;97180.48;103582;1287;60920;-33
2024/01/15 04:13:59;;;;;;;11.40;5.20;;;;;;;-0.07;98.95;97170.92;103657;1282;60874;-32
2024/01/15 04:16:24;;;;;;;9.40;4.60;;;;;;;0.02;98.38;97176.39;103619;1282;60888;-31
2024/01/15 04:18:50;;;;;;;9.60;5.30;;;;;;;0.06;97.97;97173.77;103689;1282;60804;-33
2024/01/15 04:21:18;;;;;;;9.20;4.80;;;;;;;0.11;97.48;97174.23;103692;1283;60709;-32
2024/01/15 04:23:44;;;;;;;7.60;3.80;;;;;;;0.08;96.86;97172.12;103776;1282;60716;-40
2024/01/15 04:26:09;;;;;;;9.00;4.70;;;;;;;0.12;96.42;97167.42;103735;1283;62201;-32
2024/01/15 04:28:35;;;;;;;6.50;4.00;;;;;;;0.11;96.49;97169.25;103619;1286;60807;-32
2024/01/15 04:31:01;;;;;;;12.50;5.60;;;;;;;0.26;95.26;97166.40;103600;1285;60875;-32
2024/01/15 04:33:26;;;;;;;8.40;4.60;;;;;;;0.17;95.12;97156.52;103702;1287;60895;-35
2024/01/15 04:35:52;;;;;;;11.60;5.40;;;;;;;0.23;94.21;97157.23;103697;1285;60866;-32
2024/01/15 04:38:17;;;;;;;8.10;4.20;;;;;;;0.26;94.09;97155.20;103707;1285;61019;-33
2024/01/15 04:40:44;;;;;;;10.40;5.30;;;;;;;0.19;94.36;97155.44;103732;1282;69940;-32
2024/01/15 04:43:09;;;;;;;8.90;5.30;;;;;;;0.24;93.65;97153.92;103648;1282;60869;-31
2024/01/15 04:45:35;;;;;;;12.40;5.80;;;;;;;0.16;94.24;97154.95;103647;1282;60802;-32
2024/01/15 04:48:01;;;;;;;9.50;5.20;;;;;;;0.21;94.17;97155.42;103710;1282;60911;-31
2024/01/15 04:50:27;;;;;;;;;;;;;;;0.09;94.21;97149.23;103721;1282;60837;-32
2024/01/15 04:52:52;;;;;;;12.10;5.10;;;;;;;0.18;93.84;97137.48;103794;1282;60866;-29
2024/01/15 04:55:18;;;;;;;10.20;6.30;;;;;;;0.13;93.78;97131.94;103752;1287;60881;-34
2024/01/15 04:57:44;;;;;;;13.40;7.00;;;;;;;0.14;93.62;97133.94;103661;1282;60895;-30
2024/01/15 05:00:10;;;;;;;10.80;6.80;;;;;;;0.14;93.85;97124.80;103705;1282;60791;-31
2024/01/15 05:02:36;;;;;;;11.30;6.40;;;;;;;0.11;93.62;97115.84;103675;1282;60917;-31
2024/01/15 05:05:01;;;;;;;9.70;5.20;;;;;;;0.15;93.77;97137.33;103662;1282;60867;-31
2024/01/15 05:07:27;;;;;;;10.50;5.50;;;;;;;0.16;93.89;97132.91;103682;1286;60907;-32
2024/01/15 05:09:53;;;;;;;8.50;5.00;;;;;;;-0.02;94.36;97140.95;103717;1285;60799;-32
2024/01/15 05:12:18;;;;;;;9.60;5.90;;;;;;;0.01;94.42;97139.88;103650;1286;60891;-31
2024/01/15 05:14:44;;;;;;;12.10;5.50;;;;;;;0.04;94.24;97134.96;103673;1282;60875;-33
2024/01/15 05:17:10;;;;;;;10.10;6.00;;;;;;;0.09;93.52;97131.70;103627;1283;74792;-32
2024/01/15 05:19:35;;;;;;;11.00;5.90;;;;;;;-0.03;93.75;97127.86;103762;1282;62393;-37
2024/01/15 05:22:01;;;;;;;13.40;6.30;;;;;;;-0.08;93.58;97126.73;103594;1283;60866;-32
2024/01/15 05:24:27;;;;;;;13.10;6.10;;;;;;;-0.18;94.03;97132.84;103678;1282;60978;-31
2024/01/15 05:26:52;;;;;;;14.90;5.60;;;;;;;-0.21;94.14;97139.67;103767;1281;60888;-30
2024/01/15 05:29:18;;;;;;;13.50;6.70;;;;;;;-0.34;94.69;97137.91;103740;1282;60965;-32
2024/01/15 05:31:44;;;;;;;11.00;5.50;;;;;;;-0.39;94.98;97138.90;103838;1285;60907;-32
2024/01/15 05:34:10;;;;;;;10.90;5.40;;;;;;;-0.32;95.08;97139.08;103813;1282;73461;-31
2024/01/15 05:36:35;;;;;;;13.80;8.00;;;;;;;-0.32;95.10;97136.64;103746;1282;60869;-29
2024/01/15 05:39:01;;;;;;;11.30;5.30;;;;;;;-0.22;94.56;97127.88;103051;1282;1002992;-30
2024/01/15 05:41:26;;;;;;;10.30;5.70;;;;;;;-0.17;94.25;97135.16;103697;1283;61016;-30
2024/01/15 05:43:52;;;;;;;10.80;5.20;;;;;;;-0.17;93.87;97128.50;103664;1282;60891;-31
2024/01/15 05:46:18;;;;;;;12.50;7.40;;;;;;;-25.79;75.27;77709.08;102963;1283;1002167;-30
2024/01/15 05:48:43;;;;;;;13.10;7.60;;;;;;;-128.00;-1.00;-1.00;100160;1283;1003877;-31
2024/01/15 05:51:10;;;;;;;9.10;5.30;;;;;;;-128.00;-1.00;-1.00;100037;1288;1046717;-32
2024/01/15 05:53:35;;;;;;;10.90;6.30;;;;;;;-128.00;-1.00;-1.00;100072;1282;1004590;-30
2024/01/15 05:56:01;;;;;;;12.80;6.10;;;;;;;-128.00;-1.00;-1.00;100073;1283;1004757;-30
2024/01/15 05:58:27;;;;;;;10.80;5.70;;;;;;;-128.00;-1.00;-1.00;100038;1283;1060561;-32
2024/01/15 06:00:52;;;;;;;12.00;6.70;;;;;;;-128.00;-1.00;-1.00;100270;1283;1004843;-32
2024/01/15 06:03:18;;;;;;;11.70;6.00;;;;;;;-128.00;-1.00;-1.00;100105;1286;1004507;-31
2024/01/15 06:05:43;;;;;;;8.90;4.80;;;;;;;-128.00;-1.00;-1.00;100103;1282;1060610;-32
2024/01/15 06:08:09;;;;;;;14.20;6.60;;;;;;;-128.00;-1.00;-1.00;100123;1283;1003656;-32
2024/01/15 06:10:35;;;;;;;12.10;5.50;;;;;;;-128.00;-1.00;-1.00;100242;1283;1003877;-30
2024/01/15 06:13:01;;;;;;;12.70;6.50;;;;;;;-128.00;-1.00;-1.00;100219;1285;1046026;-31
2024/01/15 06:15:27;;;;;;;13.30;6.40;;;;;;;-128.00;-1.00;-1.00;100076;1285;1004817;-40
2024/01/15 06:17:53;;;;;;;13.50;6.30;;;;;;;-128.00;-1.00;-1.00;100040;1282;1004429;-32
2024/01/15 06:20:19;;;;;;;11.40;5.70;;;;;;;-128.00;-1.00;-1.00;100065;1282;1060653;-33
2024/01/15 06:22:44;;;;;;;13.10;6.10;;;;;;;-128.00;-1.00;-1.00;100149;1282;1004153;-31
2024/01/15 06:25:10;;;;;;;13.20;6.20;;;;;;;-128.00;-1.00;-1.00;100117;1282;1004042;-31
2024/01/15 06:27:36;;;;;;;14.80;7.60;;;;;;;-128.00;-1.00;-1.00;100066;1283;1061271;-33
2024/01/15 06:30:02;;;;;;;14.80;7.50;;;;;;;-128.00;-1.00;-1.00;100120;1283;1004713;-33
2024/01/15 06:32:27;;;;;;;;;;;;;;;-128.00;-1.00;-1.00;100398;1282;1002685;-30
2024/01/15 06:34:53;;;;;;;12.70;6.20;;;;;;;-128.00;-1.00;-1.00;100165;1287;1003018;-29
2024/01/15 06:37:20;;;;;;;13.80;6.80;;;;;;;-128.00;-1.00;-1.00;100241;1285;1003345;-30
2024/01/15 06:39:45;;;;;;;15.60;7.90;;;;;;;-128.00;-1.00;-1.00;100156;1282;1004339;-30
2024/01/15 06:42:11;;;;;;;14.60;6.80;;;;;;;-128.00;-1.00;-1.00;100192;1282;1003043;-29
2024/01/15 06:44:37;;;;;;;15.30;6.50;;;;;;;-128.00;-1.00;-1.00;100079;1282;1014487;-33
2024/01/15 06:47:03;;;;;;;18.60;9.10;;;;;;;-128.00;-1.00;-1.00;100220;1282;1004061;-30
2024/01/15 06:49:29;;;;;;;;;;;;;;;-128.00;-1.00;-1.00;100121;1282;1062097;-30
2024/01/15 06:51:55;;;;;;;15.10;7.50;;;;;;;-128.00;-1.00;-1.00;100122;1287;1004601;-31
2024/01/15 06:54:21;;;;;;;13.10;7.70;;;;;;;-128.00;-1.00;-1.00;100060;1285;1003625;-31
2024/01/15 06:56:46;;;;;;;13.40;6.90;;;;;;;-128.00;-1.00;-1.00;100114;1282;1004702;-33
2024/01/15 06:59:12;;;;;;;14.50;8.40;;;;;;;-128.00;-1.00;-1.00;100132;1282;1003511;-30
2024/01/15 07:01:37;;;;;;;12.30;6.20;;;;;;;-128.00;-1.00;-1.00;100144;1283;1005254;-33
2024/01/15 07:04:03;;;;;;;14.20;6.50;;;;;;;-128.00;-1.00;-1.00;100070;1282;1004895;-31
2024/01/15 07:06:30;;;;;;;14.80;8.00;;;;;;;-128.00;-1.00;-1.00;100020;1282;1014404;-33
2024/01/15 07:08:56;;;;;;;14.80;7.40;;;;;;;-128.00;-1.00;-1.00;100136;1283;1004276;-31
2024/01/15 07:11:22;;;;;;;;;;;;;;;-128.00;-1.00;-1.00;100166;1286;1004993;-31
2024/01/15 07:13:47;;;;;;;11.00;5.70;;;;;;;-128.00;-1.00;-1.00;100162;1282;1004816;-32
2024/01/15 07:16:13;;;;;;;11.50;6.00;;;;;;;-128.00;-1.00;-1.00;100179;1283;1061125;-32
2024/01/15 07:18:39;;;;;;;11.60;6.20;;;;;;;-128.00;-1.00;-1.00;100134;1283;1005290;-30
2024/01/15 07:21:04;;;;;;;14.70;7.90;;;;;;;-128.00;-1.00;-1.00;100064;1288;1004256;-35
2024/01/15 07:23:31;;;;;;;18.20;9.30;;;;;;;-128.00;-1.00;-1.00;100124;1282;1062457;-31
2024/01/15 07:25:57;;;;;;;12.50;7.60;;;;;;;-128.00;-1.00;-1.00;100023;1283;1004992;-33
2024/01/15 07:28:23;;;;;;;;;;;;;;;-128.00;-1.00;-1.00;100067;1282;1005367;-33
2024/01/15 07:30:48;;;;;;;10.90;6.40;;;;;;;-128.00;-1.00;-1.00;100075;1284;1004478;-33
2024/01/15 07:33:14;;;;;;;8.10;4.50;;;;;;;-128.00;-1.00;-1.00;100109;1282;1005363;-32
2024/01/15 07:35:39;;;;;;;11.30;4.50;;;;;;;-128.00;-1.00;-1.00;100192;1282;1004107;-32
2024/01/15 07:38:05;;;;;;;12.70;5.30;;;;;;;-128.00;-1.00;-1.00;100091;1282;1004015;-34
2024/01/15 07:40:31;;;;;;;10.50;5.90;;;;;;;-128.00;-1.00;-1.00;100080;1282;1014301;-31
2024/01/15 07:42:56;;;;;;;13.10;5.50;;;;;;;-128.00;-1.00;-1.00;100107;1282;1004974;-31
2024/01/15 07:45:22;;;;;;;17.70;7.10;;;;;;;-128.00;-1.00;-1.00;100146;1283;1004214;-31
2024/01/15 07:47:49;;;;;;;12.20;5.40;;;;;;;-128.00;-1.00;-1.00;100230;1282;1057545;-31
2024/01/15 07:50:14;;;;;;;12.30;6.20;;;;;;;-128.00;-1.00;-1.00;100142;1282;1004774;-29
2024/01/15 07:52:41;;;;;;;16.40;7.60;;;;;;;-128.00;-1.00;-1.00;100148;1282;1004672;-33
2024/01/15 07:55:08;;;;;;;15.60;6.80;;;;;;;-128.00;-1.00;-1.00;100110;1285;1005114;-31
2024/01/15 07:57:33;;;;;;;11.50;6.00;;;;;;;-128.00;-1.00;-1.00;100058;1282;1003743;-34
2024/01/15 07:59:59;;;;;;;16.90;7.40;;;;;;;-128.00;-1.00;-1.00;100148;1282;1003990;-33
2024/01/15 08:02:24;;;;;;;11.20;5.70;;;;;;;-128.00;-1.00;-1.00;99987;1282;1060948;-34
2024/01/15 08:04:50;;;;;;;16.30;6.60;;;;;;;-128.00;-1.00;-1.00;100046;1282;1004742;-31
2024/01/15 08:07:16;;;;;;;16.40;6.20;;;;;;;-128.00;-1.00;-1.00;100071;1285;1004419;-30
2024/01/15 08:09:41;;;;;;;14.60;7.40;;;;;;;-128.00;-1.00;-1.00;100045;1282;1005147;-30
2024/01/15 08:12:07;;;;;;;13.70;6.70;;;;;;;-128.00;-1.00;-1.00;100159;1283;1004415;-30
2024/01/15 08:14:33;;;;;;;15.90;6.60;;;;;;;-128.00;-1.00;-1.00;100123;1285;1004508;-30
2024/01/15 08:16:59;;;;;;;17.10;6.90;;;;;;;-128.00;-1.00;-1.00;100141;1285;1045045;-32
2024/01/15 08:19:24;;;;;;;19.20;6.80;;;;;;;-128.00;-1.00;-1.00;100138;1282;1004805;-31
2024/01/15 08:21:50;;;;;;;17.90;7.30;;;;;;;-128.00;-1.00;-1.00;100182;1282;1056684;-32
2024/01/15 08:24:16;;;;;;;17.00;8.00;;;;;;;-128.00;-1.00;-1.00;100124;1283;1004672;-32
2024/01/15 08:26:42;;;;;;;16.00;7.60;;;;;;;-128.00;-1.00;-1.00;100078;1287;1005257;-30
2024/01/15 08:29:08;;;;;;;16.00;7.20;;;;;;;-128.00;-1.00;-1.00;100258;1283;1004610;-32
2024/01/15 08:31:33;;;;;;;14.70;7.10;;;;;;;-128.00;-1.00;-1.00;100026;1283;1004482;-32
2024/01/15 08:34:01;;;;;;;16.20;7.00;;;;;;;-128.00;-1.00;-1.00;100013;1282;1004139;-42
2024/01/15 08:36:29;;;;;;;15.50;7.30;;;;;;;-128.00;-1.00;-1.00;100072;1285;1003924;-30
2024/01/15 08:38:55;;;;;;;19.00;7.50;;;;;;;-128.00;-1.00;-1.00;100113;1282;1004759;-31
2024/01/15 08:41:20;;;;;;;18.40;6.90;;;;;;;-128.00;-1.00;-1.00;100059;1283;1004746;-32
2024/01/15 08:43:46;;;;;;;16.90;7.20;;;;;;;-128.00;-1.00;-1.00;100257;1283;1004536;-31
2024/01/15 08:46:12;;;;;;;16.60;8.10;;;;;;;-128.00;-1.00;-1.00;100140;1282;1057416;-32
2024/01/15 08:48:38;;;;;;;16.90;7.80;;;;;;;-128.00;-1.00;-1.00;100066;1287;1005111;-34
2024/01/15 08:51:04;;;;;;;12.90;7.20;;;;;;;-128.00;-1.00;-1.00;100106;1288;1004262;-33
2024/01/15 08:53:29;;;;;;;;;;;;;;;-128.00;-1.00;-1.00;100196;1282;1048128;-32
2024/01/15 08:55:55;;;;;;;16.10;6.70;;;;;;;-128.00;-1.00;-1.00;100124;1282;1005383;-31
2024/01/15 08:58:21;;;;;;;13.90;7.30;;;;;;;-128.00;-1.00;-1.00;100130;1282;1004270;-31
2024/01/15 09:00:46;;;;;;;17.20;7.20;;;;;;;-128.00;-1.00;-1.00;100090;1282;1015004;-31
2024/01/15 09:03:12;;;;;;;13.60;7.20;;;;;;;-128.00;-1.00;-1.00;100261;1287;1004952;-33
2024/01/15 09:05:37;;;;;;;15.70;6.20;;;;;;;-128.00;-1.00;-1.00;100303;1282;1060773;-31
2024/01/15 09:08:03;;;;;;;12.90;6.70;;;;;;;-128.00;-1.00;-1.00;99960;1283;1004545;-33
2024/01/15 09:10:29;;;;;;;13.70;7.20;;;;;;;-128.00;-1.00;-1.00;100274;1283;1003586;-35
2024/01/15 09:12:55;;;;;;;;;;;;;;;-128.00;-1.00;-1.00;100327;1283;1043099;-29
2024/01/15 09:15:21;;;;;;;16.40;7.10;;;;;;;-128.00;-1.00;-1.00;100217;1282;1003180;-29
2024/01/15 09:17:46;;;;;;;11.90;6.40;;;;;;;-128.00;-1.00;-1.00;100166;1282;1055733;-32
2024/01/15 09:20:12;;;;;;;16.20;6.70;;;;;;;-128.00;-1.00;-1.00;100154;1282;1004300;-31
2024/01/15 09:22:40;;;;;;;15.30;7.20;;;;;;;-128.00;-1.00;-1.00;100218;1283;1003130;-32
2024/01/15 09:25:06;;;;;;;17.00;7.70;;;;;;;-128.00;-1.00;-1.00;100327;1286;1046084;-30
2024/01/15 09:27:32;;;;;;;13.20;6.90;;;;;;;-128.00;-1.00;-1.00;100302;1282;1003075;-31
2024/01/15 09:29:58;;;;;;;14.00;6.70;;;;;;;-128.00;-1.00;-1.00;100318;1288;1002994;-31
2024/01/15 09:32:24;;;;;;;14.20;7.10;;;;;;;-128.00;-1.00;-1.00;100244;1285;1003483;-32
2024/01/15 09:34:50;;;;;;;14.30;6.70;;;;;;;-128.00;-1.00;-1.00;100366;1285;1003925;-32
2024/01/15 09:37:15;;;;;;;;;;;;;;;-128.00;-1.00;-1.00;100299;1282;1046655;-31
2024/01/15 09:39:41;;;;;;;13.70;6.70;;;;;;;-128.00;-1.00;-1.00;100336;1283;1004114;-31
2024/01/15 09:42:07;;;;;;;13.50;7.20;;;;;;;-128.00;-1.00;-1.00;100287;1282;1058161;-33
2024/01/15 09:44:33;;;;;;;;;;;;;;;-128.00;-1.00;-1.00;100296;1283;1003558;-31
2024/01/15 09:46:58;;;;;;;15.10;7.00;;;;;;;-128.00;-1.00;-1.00;100209;1286;1002930;-33
2024/01/15 09:49:24;;;;;;;10.50;5.40;;;;;;;-128.00;-1.00;-1.00;100065;1282;1061891;-33
2024/01/15 09:51:50;;;;;;;17.00;7.30;;;;;;;-128.00;-1.00;-1.00;100137;1282;1005294;-32
2024/01/15 09:54:17;;;;;;;15.20;6.80;;;;;;;-128.00;-1.00;-1.00;100151;1282;1005108;-32
2024/01/15 09:56:48;;;;;;;17.10;7.50;;;;;;;-128.00;-1.00;-1.00;100126;1283;1044446;-32
2024/01/15 09:59:18;;;;;;;17.90;7.90;;;;;;;-128.00;-1.00;-1.00;100120;1283;1048383;-31
2024/01/15 10:01:44;;;;;;;17.40;7.30;;;;;;;-128.00;-1.00;-1.00;100172;1283;1061854;-31
2024/01/15 10:04:13;;;;;;;17.90;6.90;;;;;;;-128.00;-1.00;-1.00;100139;1282;1003708;-33
2024/01/15 10:06:42;;;;;;;16.90;7.30;;;;;;;-128.00;-1.00;-1.00;100097;1286;1060758;-32
2024/01/15 10:09:08;;;;;;;13.80;7.80;;;;;;;-128.00;-1.00;-1.00;100111;1288;1013799;-30
2024/01/15 10:11:33;;;;;;;13.30;6.90;;;;;;;-128.00;-1.00;-1.00;100163;1283;1005021;-33
2024/01/15 10:13:59;;;;;;;21.10;7.90;;;;;;;-128.00;-1.00;-1.00;100132;1283;1004467;-31
2024/01/15 10:16:25;;;;;;;17.50;7.90;;;;;;;-128.00;-1.00;-1.00;100058;1283;1057691;-31
2024/01/15 10:18:51;;;;;;;18.20;7.90;;;;;;;-128.00;-1.00;-1.00;100076;1283;1004407;-31
2024/01/15 10:21:17;;;;;;;15.20;6.80;;;;;;;-128.00;-1.00;-1.00;100080;1283;1005011;-31
2024/01/15 10:23:43;;;;;;;14.70;7.40;;;;;;;-128.00;-1.00;-1.00;100164;1283;1004530;-31
2024/01/15 10:26:08;;;;;;;15.10;6.80;;;;;;;-128.00;-1.00;-1.00;100083;1282;1061577;-33
2024/01/15 10:28:34;;;;;;;11.70;6.00;;;;;;;-128.00;-1.00;-1.00;100102;1283;1004503;-33
2024/01/15 10:31:01;;;;;;;16.40;6.60;;;;;;;-128.00;-1.00;-1.00;99879;1288;1004524;-31
2024/01/15 10:33:27;;;;;;;16.70;7.10;;;;;;;-128.00;-1.00;-1.00;100160;1287;1004595;-32
2024/01/15 10:35:55;;;;;;;14.60;6.70;;;;;;;-128.00;-1.00;-1.00;100243;1288;1003976;-31
2024/01/15 10:38:24;;;;;;;15.60;6.90;;;;;;;-128.00;-1.00;-1.00;100183;1283;1060519;-33
2024/01/15 10:40:54;;;;;;;12.60;8.70;;;;;;;-128.00;-1.00;-1.00;100301;1283;1055537;-34
2024/01/15 10:43:20;;;;;;;14.00;6.60;;;;;;;-128.00;-1.00;-1.00;100273;1282;1059143;-32
2024/01/15 10:45:46;;;;;;;14.70;6.20;;;;;;;-128.00;-1.00;-1.00;100177;1288;1004172;-34
2024/01/15 10:48:12;;;;;;;16.50;7.30;;;;;;;-128.00;-1.00;-1.00;100286;1282;1003634;-34
2024/01/15 10:50:38;;;;;;;15.30;6.50;;;;;;;-128.00;-1.00;-1.00;100221;1286;1003370;-33
2024/01/15 10:53:04;;;;;;;16.60;7.10;;;;;;;-128.00;-1.00;-1.00;100217;1282;1004916;-32
2024/01/15 10:55:30;;;;;;;14.00;7.20;;;;;;;-128.00;-1.00;-1.00;100257;1282;1058192;-32
2024/01/15 10:57:57;;;;;;;14.60;6.50;;;;;;;-128.00;-1.00;-1.00;100333;1283;1003903;-33
2024/01/15 11:00:25;;;;;;;14.60;6.10;;;;;;;-128.00;-1.00;-1.00;100196;1288;1003460;-31
2024/01/15 11:02:50;;;;;;;13.10;5.00;;;;;;;-128.00;-1.00;-1.00;100145;1282;1004453;-33
2024/01/15 11:05:18;;;;;;;;;;;;;;;-128.00;-1.00;-1.00;100141;1283;1003532;-32
2024/01/15 11:07:43;;;;;;;;;;;;;;;-128.00;-1.00;-1.00;100069;1282;1004248;-32
2024/01/15 11:10:41;;;;;;;14.60;6.70;;;;;;;-128.00;-1.00;-1.00;100090;1282;1004857;-34
2024/01/15 11:13:10;;;;;;;;;;;;;;;-128.00;-1.00;-1.00;100107;1285;1046006;-33
2024/01/15 11:15:54;;;;;;;15.10;7.30;;;;;;;-128.00;-1.00;-1.00;100097;1282;1048204;-33
2024/01/15 11:18:22;;;;;;;13.80;7.70;;;;;;;-128.00;-1.00;-1.00;100120;1283;1061586;-33
2024/01/15 11:21:12;;;;;;;15.80;6.90;;;;;;;-128.00;-1.00;-1.00;100139;1283;1004354;-35
2024/01/15 11:23:46;;;;;;;12.60;6.80;;;;;;;-128.00;-1.00;-1.00;100165;1283;1059771;-33
2024/01/15 11:26:35;;;;;;;10.30;5.50;;;;;;;-128.00;-1.00;-1.00;100172;1285;1013668;-33
2024/01/15 11:29:06;;;;;;;13.80;6.40;;;;;;;-128.00;-1.00;-1.00;100170;1289;1044769;-31
2024/01/15 11:31:58;;;;;;;10.70;6.00;;;;;;;-128.00;-1.00;-1.00;100147;1283;1050119;-32
2024/01/15 11:34:48;;;;;;;13.90;7.30;;;;;;;-128.00;-1.00;-1.00;100078;1282;1061876;-30
2024/01/15 11:37:14;;;;;;;12.20;6.50;;;;;;;-128.00;-1.00;-1.00;100110;1282;1057792;-32
2024/01/15 11:39:39;;;;;;;11.10;6.00;;;;;;;-128.00;-1.00;-1.00;100124;1282;1003364;-34
2024/01/15 11:42:05;;;;;;;;;;;;;;;-128.00;-1.00;-1.00;100183;1286;1004999;-30
2024/01/15 11:44:31;;;;;;;11.40;5.80;;;;;;;-128.00;-1.00;-1.00;100091;1283;1004498;-32
2024/01/15 11:47:03;;;;;;;11.00;5.50;;;;;;;-128.00;-1.00;-1.00;100089;1286;1005036;-30
2024/01/15 11:49:56;;;;;;;11.10;6.00;;;;;;;-128.00;-1.00;-1.00;100161;1283;1057007;-33
2024/01/15 11:52:23;;;;;;;9.60;5.80;;;;;;;-128.00;-1.00;-1.00;100012;1286;1062639;-30
2024/01/15 11:54:56;;;;;;;14.20;7.60;;;;;;;-128.00;-1.00;-1.00;100104;1285;1004024;-30
2024/01/15 11:57:24;;;;;;;11.90;5.80;;;;;;;-128.00;-1.00;-1.00;100117;1285;1047396;-31